createdAt,value
2022-10-02T00:02:25.105Z,97356.38
2022-10-02T00:05:01.262Z,97355.74
2022-10-02T00:07:51.637Z,97356.23
2022-10-02T00:10:30.228Z,97359.35
2022-10-02T00:13:05.531Z,97362.56
2022-10-02T00:15:38.654Z,97359.54
2022-10-02T00:18:15.843Z,97358.77
2022-10-02T00:21:04.678Z,97355.50
2022-10-02T00:23:40.535Z,97358.69
2022-10-02T00:26:17.754Z,97362.54
2022-10-02T00:28:59.456Z,97363.54
2022-10-02T00:31:34.944Z,97361.89
2022-10-02T00:34:23.116Z,97365.60
2022-10-02T00:37:04.644Z,97368.36
2022-10-02T00:39:48.991Z,97373.80
2022-10-02T00:42:46.907Z,97373.02
2022-10-02T00:45:41.713Z,97380.26
2022-10-02T00:48:33.142Z,97387.81
2022-10-02T00:51:15.618Z,97388.88
2022-10-02T00:53:57.672Z,97393.39
2022-10-02T00:56:38.557Z,97393.91
2022-10-02T00:59:21.271Z,97399.99
2022-10-02T01:01:58.396Z,97401.48
2022-10-02T01:04:34.280Z,97398.94
2022-10-02T01:07:08.366Z,97396.13
2022-10-02T01:09:40.597Z,97400.21
2022-10-02T01:12:12.679Z,97402.54
2022-10-02T01:14:44.254Z,97409.70
2022-10-02T01:17:25.255Z,97410.48
2022-10-02T01:19:57.678Z,97413.50
2022-10-02T01:22:35.728Z,97412.98
2022-10-02T01:25:09.254Z,97416.38
2022-10-02T01:27:40.839Z,97419.38
2022-10-02T01:30:12.538Z,97416.23
2022-10-02T01:32:49.185Z,97420.17
2022-10-02T01:35:23.429Z,97424.28
2022-10-02T01:37:57.150Z,97425.55
2022-10-02T01:40:31.011Z,97430.45
2022-10-02T01:43:05.820Z,97432.21
2022-10-02T01:45:53.577Z,97432.35
2022-10-02T01:48:43.073Z,97435.52
2022-10-02T01:51:33.425Z,97433.79
2022-10-02T01:54:17.064Z,97431.32
2022-10-02T01:56:55.467Z,97435.92
2022-10-02T01:59:41.136Z,97437.66
2022-10-02T02:02:19.705Z,97440.33
2022-10-02T02:05:00.789Z,97444.29
2022-10-02T02:07:41.622Z,97450.41
2022-10-02T02:10:25.403Z,97452.07
2022-10-02T02:13:01.647Z,97452.17
2022-10-02T02:15:41.166Z,97452.01
2022-10-02T02:18:21.118Z,97455.37
2022-10-02T02:20:56.999Z,97457.48
2022-10-02T02:23:32.635Z,97460.75
2022-10-02T02:26:07.486Z,97462.09
2022-10-02T02:28:41.966Z,97462.27
2022-10-02T02:31:17.517Z,97464.06
2022-10-02T02:33:54.729Z,97465.73
2022-10-02T02:36:32.377Z,97466.30
2022-10-02T02:39:08.503Z,97465.05
2022-10-02T02:41:46.554Z,97468.42
2022-10-02T02:44:24.147Z,97469.06
2022-10-02T02:47:06.939Z,97471.17
2022-10-02T02:49:45.885Z,97469.41
2022-10-02T02:52:22.889Z,97466.31
2022-10-02T02:54:59.239Z,97463.08
2022-10-02T02:57:36.227Z,97468.31
2022-10-02T03:00:11.670Z,97477.31
2022-10-02T03:02:43.124Z,97486.41
2022-10-02T03:05:18.242Z,97484.11
2022-10-02T03:07:54.274Z,97484.66
2022-10-02T03:10:40.566Z,97489.01
2022-10-02T03:13:28.294Z,97496.47
2022-10-02T03:16:13.091Z,97506.70
2022-10-02T03:18:57.716Z,97509.08
2022-10-02T03:21:35.679Z,97507.45
2022-10-02T03:24:16.313Z,97511.56
2022-10-02T03:26:53.444Z,97508.73
2022-10-02T03:29:29.844Z,97511.95
2022-10-02T03:32:02.709Z,97511.23
2022-10-02T03:34:36.995Z,97505.67
2022-10-02T03:37:09.208Z,97508.32
2022-10-02T03:39:45.629Z,97512.80
2022-10-02T03:42:20.814Z,97517.52
2022-10-02T03:44:52.311Z,97527.05
2022-10-02T03:47:23.974Z,97526.40
2022-10-02T03:49:55.423Z,97530.19
2022-10-02T03:52:25.787Z,97530.39
2022-10-02T03:55:03.291Z,97532.64
2022-10-02T03:57:36.228Z,97535.10
2022-10-02T04:00:13.073Z,97540.00
2022-10-02T04:02:49.407Z,97541.46
2022-10-02T04:05:26.264Z,97546.42
2022-10-02T04:08:03.858Z,97547.60
2022-10-02T04:10:44.873Z,97548.78
2022-10-02T04:13:23.038Z,97555.77
2022-10-02T04:16:02.795Z,97558.63
2022-10-02T04:18:40.926Z,97561.48
2022-10-02T04:21:21.371Z,97560.64
2022-10-02T04:23:57.825Z,97561.48
2022-10-02T04:26:34.937Z,97568.34
2022-10-02T04:29:16.061Z,97575.35
2022-10-02T04:31:52.139Z,97580.55
2022-10-02T04:34:23.855Z,97583.09
2022-10-02T04:37:02.132Z,97586.42
2022-10-02T04:39:51.271Z,97590.42
2022-10-02T04:42:36.646Z,97595.10
2022-10-02T04:45:30.113Z,97603.20
2022-10-02T04:48:26.289Z,97607.98
2022-10-02T04:51:06.099Z,97606.77
2022-10-02T04:54:09.554Z,97606.17
2022-10-02T04:57:13.048Z,97611.66
2022-10-02T04:59:58.878Z,97616.40
2022-10-02T05:02:41.776Z,97618.73
2022-10-02T05:05:25.917Z,97628.74
2022-10-02T05:08:18.201Z,97630.08
2022-10-02T05:11:05.744Z,97632.95
2022-10-02T05:13:54.723Z,97636.70
2022-10-02T05:16:48.930Z,97637.00
2022-10-02T05:19:46.241Z,97637.73
2022-10-02T05:22:47.438Z,97636.45
2022-10-02T05:25:33.671Z,97634.74
2022-10-02T05:28:30.963Z,97634.99
2022-10-02T05:31:14.111Z,97641.50
2022-10-02T05:34:02.342Z,97645.39
2022-10-02T05:36:52.840Z,97647.98
2022-10-02T05:39:31.259Z,97655.02
2022-10-02T05:42:13.527Z,97656.67
2022-10-02T05:44:51.664Z,97661.44
2022-10-02T05:47:30.407Z,97661.86
2022-10-02T05:50:10.926Z,97660.96
2022-10-02T05:52:48.605Z,97662.58
2022-10-02T05:55:24.861Z,97666.38
2022-10-02T05:58:01.851Z,97672.46
2022-10-02T06:00:39.205Z,97676.38
2022-10-02T06:03:18.962Z,97676.97
2022-10-02T06:05:56.309Z,97680.04
2022-10-02T06:08:35.842Z,97675.27
2022-10-02T06:11:11.516Z,97682.27
2022-10-02T06:13:48.496Z,97683.33
2022-10-02T06:16:23.623Z,97686.11
2022-10-02T06:18:59.554Z,97693.81
2022-10-02T06:21:36.752Z,97694.89
2022-10-02T06:24:17.557Z,97699.13
2022-10-02T06:26:54.825Z,97705.20
2022-10-02T06:29:33.593Z,97704.29
2022-10-02T06:32:16.300Z,97706.22
2022-10-02T06:34:48.609Z,97709.55
2022-10-02T06:37:44.226Z,97712.70
2022-10-02T06:40:44.380Z,97717.14
2022-10-02T06:43:28.209Z,97720.83
2022-10-02T06:46:12.057Z,97721.20
2022-10-02T06:48:53.038Z,97722.89
2022-10-02T06:51:32.517Z,97723.66
2022-10-02T06:54:19.355Z,97726.95
2022-10-02T06:57:12.424Z,97725.33
2022-10-02T06:59:56.594Z,97724.04
2022-10-02T07:02:41.516Z,97726.36
2022-10-02T07:05:37.804Z,97724.98
2022-10-02T07:08:15.668Z,97733.08
2022-10-02T07:10:57.507Z,97728.92
2022-10-02T07:13:35.535Z,97729.58
2022-10-02T07:16:18.766Z,97734.97
2022-10-02T07:19:09.213Z,97737.08
2022-10-02T07:21:49.414Z,97734.09
2022-10-02T07:24:41.027Z,97741.35
2022-10-02T07:27:20.825Z,97739.91
2022-10-02T07:30:00.791Z,97741.73
2022-10-02T07:32:43.267Z,97741.08
2022-10-02T07:35:29.555Z,97742.17
2022-10-02T07:38:15.199Z,97742.10
2022-10-02T07:40:59.796Z,97745.73
2022-10-02T07:43:47.500Z,97741.61
2022-10-02T07:46:28.738Z,97740.23
2022-10-02T07:49:13.795Z,97746.83
2022-10-02T07:51:55.463Z,97749.19
2022-10-02T07:54:41.255Z,97744.61
2022-10-02T07:57:25.945Z,97746.15
2022-10-02T08:00:03.642Z,97745.13
2022-10-02T08:02:50.702Z,97741.58
2022-10-02T08:05:26.642Z,97738.85
2022-10-02T08:08:03.221Z,97741.92
2022-10-02T08:10:38.773Z,97743.98
2022-10-02T08:13:20.489Z,97742.12
2022-10-02T08:15:56.371Z,97744.85
2022-10-02T08:18:35.357Z,97748.91
2022-10-02T08:21:13.932Z,97743.57
2022-10-02T08:23:50.918Z,97747.23
2022-10-02T08:26:34.497Z,97753.70
2022-10-02T08:29:12.791Z,97752.54
2022-10-02T08:31:44.322Z,97747.92
2022-10-02T08:34:19.629Z,97745.66
2022-10-02T08:37:05.294Z,97742.48
2022-10-02T08:39:56.628Z,97742.18
2022-10-02T08:43:04.161Z,97742.16
2022-10-02T08:46:17.482Z,97743.58
2022-10-02T08:49:19.747Z,97737.45
2022-10-02T08:52:27.392Z,97742.65
2022-10-02T08:55:38.718Z,97742.03
2022-10-02T08:58:39.845Z,97741.45
2022-10-02T09:01:35.152Z,97739.99
2022-10-02T09:04:40.482Z,97741.02
2022-10-02T09:07:44.710Z,97740.68
2022-10-02T09:10:45.937Z,97741.39
2022-10-02T09:13:56.983Z,97739.98
2022-10-02T09:16:40.751Z,97737.39
2022-10-02T09:19:31.745Z,97734.09
2022-10-02T09:22:15.633Z,97725.60
2022-10-02T09:25:03.684Z,97723.53
2022-10-02T09:27:59.674Z,97725.75
2022-10-02T09:30:54.350Z,97717.39
2022-10-02T09:33:56.711Z,97714.55
2022-10-02T09:36:51.857Z,97712.50
2022-10-02T09:39:53.400Z,97713.26
2022-10-02T09:43:06.419Z,97706.07
2022-10-02T09:46:22.296Z,97699.95
2022-10-02T09:49:36.535Z,97704.09
2022-10-02T09:52:42.025Z,97700.75
2022-10-02T09:55:49.952Z,97693.77
2022-10-02T09:58:50.703Z,97700.94
2022-10-02T10:02:02.056Z,97704.73
2022-10-02T10:05:13.804Z,97699.51
2022-10-02T10:08:10.175Z,97697.61
2022-10-02T10:11:00.535Z,97695.27
2022-10-02T10:14:08.104Z,97695.66
2022-10-02T10:17:08.980Z,97688.61
2022-10-02T10:20:05.864Z,97687.06
2022-10-02T10:23:03.540Z,97684.33
2022-10-02T10:26:16.607Z,97682.41
2022-10-02T10:29:22.567Z,97679.65
2022-10-02T10:32:22.514Z,97673.20
2022-10-02T10:35:26.992Z,97666.03
2022-10-02T10:38:29.284Z,97666.42
2022-10-02T10:41:43.782Z,97670.20
2022-10-02T10:44:54.290Z,97675.58
2022-10-02T10:47:46.822Z,97661.90
2022-10-02T10:50:42.273Z,97664.42
2022-10-02T10:53:40.557Z,97657.03
2022-10-02T10:56:29.721Z,97661.46
2022-10-02T10:59:25.419Z,97660.65
2022-10-02T11:02:14.005Z,97664.18
2022-10-02T11:05:15.506Z,97662.54
2022-10-02T11:08:07.470Z,97660.73
2022-10-02T11:10:51.766Z,97656.20
2022-10-02T11:13:44.320Z,97652.20
2022-10-02T11:16:29.153Z,97653.94
2022-10-02T11:19:21.489Z,97654.56
2022-10-02T11:22:26.503Z,97654.15
2022-10-02T11:25:22.394Z,97654.54
2022-10-02T11:28:22.301Z,97650.61
2022-10-02T11:31:09.278Z,97637.86
2022-10-02T11:34:03.641Z,97638.70
2022-10-02T11:36:48.529Z,97639.73
2022-10-02T11:39:37.472Z,97644.86
2022-10-02T11:42:22.846Z,97639.30
2022-10-02T11:45:19.892Z,97641.83
2022-10-02T11:48:09.036Z,97640.84
2022-10-02T11:50:56.618Z,97639.70
2022-10-02T11:53:46.134Z,97638.69
2022-10-02T11:56:32.692Z,97636.66
2022-10-02T11:59:28.401Z,97625.31
2022-10-02T12:02:07.885Z,97627.00
2022-10-02T12:04:52.330Z,97624.77
2022-10-02T12:07:36.223Z,97629.52
2022-10-02T12:10:25.524Z,97627.25
2022-10-02T12:13:16.237Z,97624.89
2022-10-02T12:15:56.191Z,97626.90
2022-10-02T12:18:39.182Z,97625.11
2022-10-02T12:21:40.835Z,97620.41
2022-10-02T12:24:34.197Z,97623.54
2022-10-02T12:27:13.641Z,97626.27
2022-10-02T12:30:06.092Z,97629.39
2022-10-02T12:32:54.507Z,97627.45
2022-10-02T12:35:38.027Z,97620.48
2022-10-02T12:38:29.874Z,97613.58
2022-10-02T12:41:11.367Z,97615.60
2022-10-02T12:43:55.485Z,97617.88
2022-10-02T12:46:41.533Z,97621.30
2022-10-02T12:49:31.485Z,97620.22
2022-10-02T12:52:28.691Z,97610.29
2022-10-02T12:55:19.574Z,97604.47
2022-10-02T12:58:03.104Z,97603.42
2022-10-02T13:00:53.811Z,97595.34
2022-10-02T13:03:57.211Z,97591.04
2022-10-02T13:07:02.056Z,97591.36
2022-10-02T13:09:48.317Z,97593.00
2022-10-02T13:12:51.507Z,97590.73
2022-10-02T13:15:37.402Z,97593.94
2022-10-02T13:18:21.390Z,97584.33
2022-10-02T13:21:04.112Z,97584.36
2022-10-02T13:23:44.553Z,97578.63
2022-10-02T13:26:29.353Z,97578.98
2022-10-02T13:29:30.991Z,97573.25
2022-10-02T13:32:17.262Z,97567.39
2022-10-02T13:35:04.242Z,97568.58
2022-10-02T13:37:48.207Z,97572.65
2022-10-02T13:40:25.430Z,97567.58
2022-10-02T13:43:13.423Z,97560.85
2022-10-02T13:45:54.078Z,97563.68
2022-10-02T13:48:35.037Z,97560.11
2022-10-02T13:51:14.287Z,97564.80
2022-10-02T13:54:06.645Z,97566.64
2022-10-02T13:56:51.111Z,97559.54
2022-10-02T13:59:42.427Z,97559.23
2022-10-02T14:02:25.443Z,97564.10
2022-10-02T14:05:06.875Z,97567.33
2022-10-02T14:07:56.609Z,97570.13
2022-10-02T14:10:39.557Z,97566.73
2022-10-02T14:13:31.182Z,97565.80
2022-10-02T14:16:08.400Z,97569.49
2022-10-02T14:18:59.311Z,97577.66
2022-10-02T14:21:35.860Z,97585.25
2022-10-02T14:24:57.115Z,97588.11
2022-10-02T14:28:11.822Z,97594.93
2022-10-02T14:31:02.351Z,97603.59
2022-10-02T14:33:50.569Z,97594.98
2022-10-02T14:36:32.941Z,97585.15
2022-10-02T14:39:21.164Z,97583.66
2022-10-02T14:42:13.947Z,97574.83
2022-10-02T14:45:05.688Z,97572.99
2022-10-02T14:47:51.333Z,97567.28
2022-10-02T14:50:42.438Z,97560.84
2022-10-02T14:53:44.878Z,97556.41
2022-10-02T14:56:54.448Z,97554.77
2022-10-02T14:59:43.547Z,97546.71
2022-10-02T15:02:35.364Z,97545.36
2022-10-02T15:05:38.862Z,97545.26
2022-10-02T15:08:16.988Z,97549.04
2022-10-02T15:10:50.028Z,97548.36
2022-10-02T15:13:34.395Z,97549.23
2022-10-02T15:16:34.316Z,97561.34
2022-10-02T15:19:14.568Z,97590.77
2022-10-02T15:21:54.979Z,97595.55
2022-10-02T15:24:40.692Z,97597.56
2022-10-02T15:27:24.710Z,97589.05
2022-10-02T15:30:06.745Z,97579.10
2022-10-02T15:33:22.522Z,97580.91
2022-10-02T15:36:15.157Z,97582.61
2022-10-02T15:38:56.362Z,97578.44
2022-10-02T15:41:49.489Z,97573.68
2022-10-02T15:44:39.385Z,97573.85
2022-10-02T15:47:24.351Z,97574.81
2022-10-02T15:50:11.298Z,97579.67
2022-10-02T15:52:55.035Z,97579.70
2022-10-02T15:55:38.741Z,97578.02
2022-10-02T15:58:24.337Z,97576.36
2022-10-02T16:01:24.410Z,97572.02
2022-10-02T16:04:01.880Z,97575.41
2022-10-02T16:06:53.625Z,97570.61
2022-10-02T16:09:34.025Z,97566.86
2022-10-02T16:12:38.223Z,97563.80
2022-10-02T16:15:22.878Z,97571.55
2022-10-02T16:18:14.416Z,97571.28
2022-10-02T16:21:07.350Z,97569.10
2022-10-02T16:24:19.199Z,97562.37
2022-10-02T16:27:11.974Z,97553.77
2022-10-02T16:29:55.041Z,97554.79
2022-10-02T16:32:35.103Z,97550.48
2022-10-02T16:35:25.084Z,97552.29
2022-10-02T16:38:04.773Z,97551.98
2022-10-02T16:40:45.434Z,97539.52
2022-10-02T16:43:45.082Z,97528.04
2022-10-02T16:46:22.072Z,97526.88
2022-10-02T16:48:57.981Z,97524.55
2022-10-02T16:51:41.524Z,97522.35
2022-10-02T16:54:20.736Z,97524.13
2022-10-02T16:56:57.879Z,97522.68
2022-10-02T16:59:34.064Z,97519.48
2022-10-02T17:02:18.793Z,97515.60
2022-10-02T17:05:12.304Z,97522.67
2022-10-02T17:07:54.404Z,97523.14
2022-10-02T17:10:38.471Z,97526.71
2022-10-02T17:13:24.704Z,97531.09
2022-10-02T17:16:00.330Z,97526.75
2022-10-02T17:18:40.555Z,97522.58
2022-10-02T17:21:17.842Z,97515.90
2022-10-02T17:24:03.223Z,97516.31
2022-10-02T17:26:41.942Z,97515.39
2022-10-02T17:29:18.832Z,97514.71
2022-10-02T17:31:58.865Z,97512.92
2022-10-02T17:34:45.689Z,97514.23
2022-10-02T17:37:53.448Z,97517.11
2022-10-02T17:40:28.281Z,97518.19
2022-10-02T17:43:06.886Z,97513.96
2022-10-02T17:45:43.961Z,97521.68
2022-10-02T17:48:26.631Z,97528.39
2022-10-02T17:51:50.756Z,97531.27
2022-10-02T17:54:44.134Z,97529.24
2022-10-02T17:57:26.874Z,97551.04
2022-10-02T18:03:31.368Z,97601.57
2022-10-02T18:06:13.687Z,97599.52
2022-10-02T18:09:06.106Z,97599.60
2022-10-02T18:11:51.152Z,97595.77
2022-10-02T18:14:35.423Z,97607.92
2022-10-02T18:17:20.167Z,97599.63
2022-10-02T18:20:00.149Z,97597.92
2022-10-02T18:22:45.330Z,97589.64
2022-10-02T18:25:41.223Z,97579.29
2022-10-02T18:28:23.627Z,97564.24
2022-10-02T18:31:08.625Z,97569.91
2022-10-02T18:34:13.550Z,97560.03
2022-10-02T18:36:53.179Z,97560.14
2022-10-02T18:39:36.996Z,97558.31
2022-10-02T18:42:39.197Z,97558.66
2022-10-02T18:45:26.587Z,97563.36
2022-10-02T18:48:07.394Z,97560.91
2022-10-02T18:50:56.227Z,97559.58
2022-10-02T18:53:46.087Z,97570.11
2022-10-02T18:56:22.282Z,97576.98
2022-10-02T18:59:06.192Z,97575.27
2022-10-02T19:01:56.263Z,97576.56
2022-10-02T19:04:42.872Z,97576.54
2022-10-02T19:07:16.801Z,97574.64
2022-10-02T19:09:45.053Z,97578.89
2022-10-02T19:12:16.606Z,97583.11
2022-10-02T19:14:46.186Z,97580.91
2022-10-02T19:17:22.587Z,97583.99
2022-10-02T19:19:50.681Z,97583.75
2022-10-02T19:22:22.803Z,97588.02
2022-10-02T19:24:54.774Z,97583.92
2022-10-02T19:27:29.314Z,97582.45
2022-10-02T19:29:59.688Z,97582.86
2022-10-02T19:32:30.510Z,97583.14
2022-10-02T19:35:05.127Z,97585.56
2022-10-02T19:37:40.755Z,97586.04
2022-10-02T19:40:17.554Z,97584.24
2022-10-02T19:42:49.103Z,97584.36
2022-10-02T19:45:25.252Z,97588.41
2022-10-02T19:47:56.821Z,97588.57
2022-10-02T19:50:35.932Z,97590.31
2022-10-02T19:53:06.653Z,97590.19
2022-10-02T19:55:40.293Z,97592.02
2022-10-02T19:58:17.039Z,97596.83
2022-10-02T20:00:45.267Z,97601.32
2022-10-02T20:03:18.811Z,97604.48
2022-10-02T20:05:48.890Z,97605.73
2022-10-02T20:08:19.830Z,97606.14
2022-10-02T20:10:54.256Z,97606.34
2022-10-02T20:13:30.559Z,97607.05
2022-10-02T20:16:22.788Z,97605.88
2022-10-02T20:18:51.952Z,97603.11
2022-10-02T20:21:31.485Z,97601.68
2022-10-02T20:24:04.152Z,97600.79
2022-10-02T20:26:37.374Z,97600.30
2022-10-02T20:29:12.050Z,97599.92
2022-10-02T20:31:46.093Z,97596.63
2022-10-02T20:34:23.103Z,97599.80
2022-10-02T20:36:57.484Z,97598.92
2022-10-02T20:39:32.470Z,97594.30
2022-10-02T20:42:08.835Z,97596.70
2022-10-02T20:44:37.948Z,97596.47
2022-10-02T20:47:31.774Z,97595.70
2022-10-02T20:50:33.076Z,97599.14
2022-10-02T20:53:46.004Z,97606.60
2022-10-02T20:56:30.790Z,97612.04
2022-10-02T20:59:38.765Z,97619.16
2022-10-02T21:02:22.352Z,97623.48
2022-10-02T21:05:20.264Z,97627.11
2022-10-02T21:08:17.924Z,97624.25
2022-10-02T21:11:12.652Z,97626.40
2022-10-02T21:14:11.812Z,97624.78
2022-10-02T21:17:06.682Z,97628.73
2022-10-02T21:20:00.550Z,97628.89
2022-10-02T21:22:59.290Z,97629.36
2022-10-02T21:25:53.397Z,97630.60
2022-10-02T21:28:59.167Z,97629.27
2022-10-02T21:31:41.446Z,97631.45
2022-10-02T21:34:20.717Z,97629.02
2022-10-02T21:36:56.811Z,97624.95
2022-10-02T21:40:09.409Z,97627.90
2022-10-02T21:43:17.006Z,97629.73
2022-10-02T21:46:05.810Z,97623.09
2022-10-02T21:49:04.270Z,97621.70
2022-10-02T21:52:03.440Z,97622.98
2022-10-02T21:55:01.607Z,97624.24
2022-10-02T21:58:02.025Z,97624.13
2022-10-02T22:00:30.812Z,97626.27
2022-10-02T22:03:36.588Z,97628.61
2022-10-02T22:06:27.020Z,97631.95
2022-10-02T22:09:09.782Z,97635.42
2022-10-02T22:11:50.779Z,97636.70
2022-10-02T22:14:28.830Z,97640.45
2022-10-02T22:17:06.517Z,97641.04
2022-10-02T22:20:09.594Z,97640.45
2022-10-02T22:22:57.881Z,97636.36
2022-10-02T22:25:40.216Z,97641.40
2022-10-02T22:28:21.222Z,97644.10
2022-10-02T22:31:09.801Z,97642.20
2022-10-02T22:33:58.970Z,97641.87
2022-10-02T22:36:48.681Z,97641.02
2022-10-02T22:39:25.662Z,97642.30
2022-10-02T22:41:58.532Z,97643.02
2022-10-02T22:44:32.952Z,97643.75
2022-10-02T22:47:07.530Z,97650.73
2022-10-02T22:49:42.422Z,97651.93
2022-10-02T22:52:19.932Z,97658.66
2022-10-02T22:54:56.743Z,97660.63
2022-10-02T22:57:35.478Z,97663.71
2022-10-02T23:00:16.309Z,97665.65
2022-10-02T23:02:51.219Z,97666.34
2022-10-02T23:05:27.399Z,97661.34
2022-10-02T23:07:59.329Z,97662.73
2022-10-02T23:10:32.655Z,97663.44
2022-10-02T23:13:05.497Z,97662.38
2022-10-02T23:15:54.329Z,97664.60
2022-10-02T23:18:39.206Z,97662.40
2022-10-02T23:21:29.028Z,97669.52
2022-10-02T23:24:04.078Z,97676.20
2022-10-02T23:26:38.237Z,97681.67
2022-10-02T23:29:21.536Z,97677.64
2022-10-02T23:31:56.925Z,97679.13
2022-10-02T23:34:36.907Z,97678.25
2022-10-02T23:37:15.859Z,97680.28
2022-10-02T23:39:50.099Z,97682.05
2022-10-02T23:42:25.940Z,97684.85
2022-10-02T23:44:59.363Z,97683.59
2022-10-02T23:47:38.491Z,97683.27
2022-10-02T23:50:19.539Z,97682.48
2022-10-02T23:53:13.518Z,97677.98
2022-10-02T23:55:51.944Z,97675.72
2022-10-02T23:58:52.429Z,97677.19
